sensor_id;sensor_type;location;lat;lon;timestamp;temperature;humidity
59311;DHT22;45078;51.654;21.250;2023-07-22T00:02:23;16.80;99.90
59311;DHT22;45078;51.654;21.250;2023-07-22T00:04:49;16.80;99.90
59311;DHT22;45078;51.654;21.250;2023-07-22T00:07:15;16.80;99.90
59311;DHT22;45078;51.654;21.250;2023-07-22T00:09:42;16.80;99.90
59311;DHT22;45078;51.654;21.250;2023-07-22T00:12:08;16.70;99.90
59311;DHT22;45078;51.654;21.250;2023-07-22T00:14:39;16.70;99.90
59311;DHT22;45078;51.654;21.250;2023-07-22T00:17:05;16.60;99.90
59311;DHT22;45078;51.654;21.250;2023-07-22T00:19:31;16.60;99.90
59311;DHT22;45078;51.654;21.250;2023-07-22T00:21:57;16.60;99.90
59311;DHT22;45078;51.654;21.250;2023-07-22T00:24:23;16.60;99.90
59311;DHT22;45078;51.654;21.250;2023-07-22T00:26:49;16.60;99.90
59311;DHT22;45078;51.654;21.250;2023-07-22T00:29:16;16.50;99.90
59311;DHT22;45078;51.654;21.250;2023-07-22T00:31:42;16.50;99.90
59311;DHT22;45078;51.654;21.250;2023-07-22T00:34:08;16.40;99.90
59311;DHT22;45078;51.654;21.250;2023-07-22T00:36:34;16.40;99.90
59311;DHT22;45078;51.654;21.250;2023-07-22T00:39:00;16.40;99.90
59311;DHT22;45078;51.654;21.250;2023-07-22T00:41:27;16.40;99.90
59311;DHT22;45078;51.654;21.250;2023-07-22T00:43:54;16.30;99.90
59311;DHT22;45078;51.654;21.250;2023-07-22T00:46:20;16.30;99.90
59311;DHT22;45078;51.654;21.250;2023-07-22T00:48:47;16.30;99.90
59311;DHT22;45078;51.654;21.250;2023-07-22T00:51:14;16.30;99.90
59311;DHT22;45078;51.654;21.250;2023-07-22T00:53:39;16.30;99.90
59311;DHT22;45078;51.654;21.250;2023-07-22T00:56:05;16.30;99.90
59311;DHT22;45078;51.654;21.250;2023-07-22T00:58:32;16.20;99.90
59311;DHT22;45078;51.654;21.250;2023-07-22T01:00:58;16.20;99.90
59311;DHT22;45078;51.654;21.250;2023-07-22T01:03:24;16.20;99.90
59311;DHT22;45078;51.654;21.250;2023-07-22T01:05:51;16.10;99.90
59311;DHT22;45078;51.654;21.250;2023-07-22T01:08:18;16.10;99.90
59311;DHT22;45078;51.654;21.250;2023-07-22T01:10:44;16.10;99.90
59311;DHT22;45078;51.654;21.250;2023-07-22T01:13:10;16.10;99.90
59311;DHT22;45078;51.654;21.250;2023-07-22T01:15:36;16.10;99.90
59311;DHT22;45078;51.654;21.250;2023-07-22T01:18:03;16.00;99.90
59311;DHT22;45078;51.654;21.250;2023-07-22T01:20:30;16.00;99.90
59311;DHT22;45078;51.654;21.250;2023-07-22T01:22:56;16.00;99.90
59311;DHT22;45078;51.654;21.250;2023-07-22T01:25:23;15.90;99.90
59311;DHT22;45078;51.654;21.250;2023-07-22T01:27:51;15.90;99.90
59311;DHT22;45078;51.654;21.250;2023-07-22T01:30:18;16.00;99.90
59311;DHT22;45078;51.654;21.250;2023-07-22T01:32:45;15.90;99.90
59311;DHT22;45078;51.654;21.250;2023-07-22T01:35:10;16.00;99.90
59311;DHT22;45078;51.654;21.250;2023-07-22T01:37:36;16.00;99.90
59311;DHT22;45078;51.654;21.250;2023-07-22T01:40:02;16.00;99.90
59311;DHT22;45078;51.654;21.250;2023-07-22T01:42:41;16.10;99.90
59311;DHT22;45078;51.654;21.250;2023-07-22T01:45:09;16.00;99.90
59311;DHT22;45078;51.654;21.250;2023-07-22T01:47:35;16.10;99.90
59311;DHT22;45078;51.654;21.250;2023-07-22T01:50:05;16.10;99.90
59311;DHT22;45078;51.654;21.250;2023-07-22T01:52:34;16.10;99.90
59311;DHT22;45078;51.654;21.250;2023-07-22T01:55:00;16.10;99.90
59311;DHT22;45078;51.654;21.250;2023-07-22T01:57:25;16.10;99.90
59311;DHT22;45078;51.654;21.250;2023-07-22T01:59:51;16.10;99.90
59311;DHT22;45078;51.654;21.250;2023-07-22T02:02:17;16.10;99.90
59311;DHT22;45078;51.654;21.250;2023-07-22T02:04:43;16.10;99.90
59311;DHT22;45078;51.654;21.250;2023-07-22T02:07:08;16.10;99.90
59311;DHT22;45078;51.654;21.250;2023-07-22T02:09:34;16.00;99.90
59311;DHT22;45078;51.654;21.250;2023-07-22T02:12:00;16.00;99.90
59311;DHT22;45078;51.654;21.250;2023-07-22T02:14:26;16.00;99.90
59311;DHT22;45078;51.654;21.250;2023-07-22T02:16:51;16.00;99.90
59311;DHT22;45078;51.654;21.250;2023-07-22T02:19:17;16.00;99.90
59311;DHT22;45078;51.654;21.250;2023-07-22T02:21:43;16.00;99.90
59311;DHT22;45078;51.654;21.250;2023-07-22T02:24:09;16.00;99.90
59311;DHT22;45078;51.654;21.250;2023-07-22T02:26:35;16.10;99.90
59311;DHT22;45078;51.654;21.250;2023-07-22T02:29:01;16.10;99.90
59311;DHT22;45078;51.654;21.250;2023-07-22T02:31:27;16.10;99.90
59311;DHT22;45078;51.654;21.250;2023-07-22T02:33:53;16.10;99.90
59311;DHT22;45078;51.654;21.250;2023-07-22T02:36:19;16.10;99.90
59311;DHT22;45078;51.654;21.250;2023-07-22T02:38:45;16.00;99.90
59311;DHT22;45078;51.654;21.250;2023-07-22T02:41:11;16.00;99.90
59311;DHT22;45078;51.654;21.250;2023-07-22T02:43:36;16.10;99.90
59311;DHT22;45078;51.654;21.250;2023-07-22T02:46:03;16.10;99.90
59311;DHT22;45078;51.654;21.250;2023-07-22T02:48:31;16.10;99.90
59311;DHT22;45078;51.654;21.250;2023-07-22T02:51:08;16.10;99.90
59311;DHT22;45078;51.654;21.250;2023-07-22T02:53:35;16.10;99.90
59311;DHT22;45078;51.654;21.250;2023-07-22T02:56:07;16.20;99.90
59311;DHT22;45078;51.654;21.250;2023-07-22T02:58:33;16.20;99.90
59311;DHT22;45078;51.654;21.250;2023-07-22T03:00:59;16.20;99.90
59311;DHT22;45078;51.654;21.250;2023-07-22T03:03:25;16.20;99.90
59311;DHT22;45078;51.654;21.250;2023-07-22T03:05:51;16.20;99.90
59311;DHT22;45078;51.654;21.250;2023-07-22T03:08:18;16.30;99.90
59311;DHT22;45078;51.654;21.250;2023-07-22T03:10:44;16.30;99.90
59311;DHT22;45078;51.654;21.250;2023-07-22T03:13:15;16.30;99.90
59311;DHT22;45078;51.654;21.250;2023-07-22T03:15:41;16.30;99.90
59311;DHT22;45078;51.654;21.250;2023-07-22T03:18:07;16.30;99.90
59311;DHT22;45078;51.654;21.250;2023-07-22T03:20:36;16.30;99.90
59311;DHT22;45078;51.654;21.250;2023-07-22T03:23:02;16.30;99.90
59311;DHT22;45078;51.654;21.250;2023-07-22T03:25:28;16.30;99.90
59311;DHT22;45078;51.654;21.250;2023-07-22T03:27:54;16.30;99.90
59311;DHT22;45078;51.654;21.250;2023-07-22T03:30:22;16.40;99.90
59311;DHT22;45078;51.654;21.250;2023-07-22T03:32:49;16.40;99.90
59311;DHT22;45078;51.654;21.250;2023-07-22T03:35:16;16.50;99.90
59311;DHT22;45078;51.654;21.250;2023-07-22T03:37:42;16.60;99.90
59311;DHT22;45078;51.654;21.250;2023-07-22T03:40:09;16.70;99.90
59311;DHT22;45078;51.654;21.250;2023-07-22T03:43:01;16.70;99.90
59311;DHT22;45078;51.654;21.250;2023-07-22T03:45:27;16.70;99.90
59311;DHT22;45078;51.654;21.250;2023-07-22T03:47:57;16.80;99.90
59311;DHT22;45078;51.654;21.250;2023-07-22T03:50:23;16.80;99.90
59311;DHT22;45078;51.654;21.250;2023-07-22T03:52:49;16.80;99.90
59311;DHT22;45078;51.654;21.250;2023-07-22T03:55:15;16.80;99.90
59311;DHT22;45078;51.654;21.250;2023-07-22T03:57:40;16.90;99.90
59311;DHT22;45078;51.654;21.250;2023-07-22T04:00:07;16.90;99.90
59311;DHT22;45078;51.654;21.250;2023-07-22T04:02:36;16.90;99.90
59311;DHT22;45078;51.654;21.250;2023-07-22T04:05:02;16.90;99.90
59311;DHT22;45078;51.654;21.250;2023-07-22T04:07:28;16.90;99.90
59311;DHT22;45078;51.654;21.250;2023-07-22T04:09:54;16.90;99.90
59311;DHT22;45078;51.654;21.250;2023-07-22T04:12:20;17.00;99.90
59311;DHT22;45078;51.654;21.250;2023-07-22T04:14:46;16.90;99.90
59311;DHT22;45078;51.654;21.250;2023-07-22T04:17:11;16.90;99.90
59311;DHT22;45078;51.654;21.250;2023-07-22T04:19:37;17.00;99.90
59311;DHT22;45078;51.654;21.250;2023-07-22T04:22:03;17.10;99.90
59311;DHT22;45078;51.654;21.250;2023-07-22T04:24:32;17.10;99.90
59311;DHT22;45078;51.654;21.250;2023-07-22T04:26:59;17.20;99.90
59311;DHT22;45078;51.654;21.250;2023-07-22T04:29:25;17.30;99.90
59311;DHT22;45078;51.654;21.250;2023-07-22T04:31:50;17.40;99.90
59311;DHT22;45078;51.654;21.250;2023-07-22T04:34:16;17.40;99.90
59311;DHT22;45078;51.654;21.250;2023-07-22T04:36:42;17.50;99.90
59311;DHT22;45078;51.654;21.250;2023-07-22T04:39:08;17.70;99.90
59311;DHT22;45078;51.654;21.250;2023-07-22T04:41:34;17.80;99.90
59311;DHT22;45078;51.654;21.250;2023-07-22T04:44:00;17.90;99.90
59311;DHT22;45078;51.654;21.250;2023-07-22T04:46:26;18.10;99.90
59311;DHT22;45078;51.654;21.250;2023-07-22T04:48:55;18.20;99.90
59311;DHT22;45078;51.654;21.250;2023-07-22T04:51:23;18.40;99.90
59311;DHT22;45078;51.654;21.250;2023-07-22T04:53:49;18.50;99.90
59311;DHT22;45078;51.654;21.250;2023-07-22T04:56:15;18.60;99.90
59311;DHT22;45078;51.654;21.250;2023-07-22T04:58:41;18.70;99.90
59311;DHT22;45078;51.654;21.250;2023-07-22T05:01:07;18.90;99.90
59311;DHT22;45078;51.654;21.250;2023-07-22T05:03:34;18.90;99.90
59311;DHT22;45078;51.654;21.250;2023-07-22T05:06:01;19.00;99.90
59311;DHT22;45078;51.654;21.250;2023-07-22T05:08:27;18.90;99.90
59311;DHT22;45078;51.654;21.250;2023-07-22T05:10:53;18.90;99.90
59311;DHT22;45078;51.654;21.250;2023-07-22T05:13:19;18.80;99.90
59311;DHT22;45078;51.654;21.250;2023-07-22T05:15:44;18.80;99.90
59311;DHT22;45078;51.654;21.250;2023-07-22T05:18:10;18.70;99.90
59311;DHT22;45078;51.654;21.250;2023-07-22T05:20:38;18.70;99.90
59311;DHT22;45078;51.654;21.250;2023-07-22T05:23:04;18.70;99.90
59311;DHT22;45078;51.654;21.250;2023-07-22T05:25:30;18.80;99.90
59311;DHT22;45078;51.654;21.250;2023-07-22T05:27:56;18.80;99.90
59311;DHT22;45078;51.654;21.250;2023-07-22T05:30:21;18.90;99.90
59311;DHT22;45078;51.654;21.250;2023-07-22T05:32:47;19.00;99.90
59311;DHT22;45078;51.654;21.250;2023-07-22T05:35:13;18.90;99.90
59311;DHT22;45078;51.654;21.250;2023-07-22T05:37:38;18.90;99.90
59311;DHT22;45078;51.654;21.250;2023-07-22T05:40:05;18.80;99.90
59311;DHT22;45078;51.654;21.250;2023-07-22T05:42:32;18.90;99.90
59311;DHT22;45078;51.654;21.250;2023-07-22T05:44:58;19.00;99.90
59311;DHT22;45078;51.654;21.250;2023-07-22T05:47:25;19.20;99.90
59311;DHT22;45078;51.654;21.250;2023-07-22T05:49:51;19.40;99.90
59311;DHT22;45078;51.654;21.250;2023-07-22T05:52:17;19.50;99.90
59311;DHT22;45078;51.654;21.250;2023-07-22T05:54:43;19.60;99.90
59311;DHT22;45078;51.654;21.250;2023-07-22T05:57:08;19.70;99.90
59311;DHT22;45078;51.654;21.250;2023-07-22T05:59:34;19.60;99.90
59311;DHT22;45078;51.654;21.250;2023-07-22T06:02:03;19.70;99.90
59311;DHT22;45078;51.654;21.250;2023-07-22T06:04:28;19.70;99.90
59311;DHT22;45078;51.654;21.250;2023-07-22T06:06:54;19.70;99.90
59311;DHT22;45078;51.654;21.250;2023-07-22T06:21:43;19.40;99.90
59311;DHT22;45078;51.654;21.250;2023-07-22T06:24:09;19.20;99.90
59311;DHT22;45078;51.654;21.250;2023-07-22T06:26:35;19.30;99.90
59311;DHT22;45078;51.654;21.250;2023-07-22T06:29:02;19.40;99.90
59311;DHT22;45078;51.654;21.250;2023-07-22T06:31:28;19.50;99.90
59311;DHT22;45078;51.654;21.250;2023-07-22T06:33:57;19.70;99.90
59311;DHT22;45078;51.654;21.250;2023-07-22T06:36:23;19.70;99.90
59311;DHT22;45078;51.654;21.250;2023-07-22T06:38:49;19.80;99.90
59311;DHT22;45078;51.654;21.250;2023-07-22T06:41:15;20.00;99.90
59311;DHT22;45078;51.654;21.250;2023-07-22T06:43:41;20.10;99.90
59311;DHT22;45078;51.654;21.250;2023-07-22T06:46:07;20.20;99.90
59311;DHT22;45078;51.654;21.250;2023-07-22T06:48:32;20.30;99.90
59311;DHT22;45078;51.654;21.250;2023-07-22T06:50:58;20.60;99.90
59311;DHT22;45078;51.654;21.250;2023-07-22T06:53:24;20.60;99.90
59311;DHT22;45078;51.654;21.250;2023-07-22T06:55:53;20.80;99.90
59311;DHT22;45078;51.654;21.250;2023-07-22T06:58:22;20.80;99.90
59311;DHT22;45078;51.654;21.250;2023-07-22T07:00:52;20.80;99.90
59311;DHT22;45078;51.654;21.250;2023-07-22T07:03:18;20.80;99.90
59311;DHT22;45078;51.654;21.250;2023-07-22T07:05:43;20.80;99.90
59311;DHT22;45078;51.654;21.250;2023-07-22T07:08:09;20.90;99.90
59311;DHT22;45078;51.654;21.250;2023-07-22T07:10:38;20.90;99.90
59311;DHT22;45078;51.654;21.250;2023-07-22T07:13:07;20.80;99.90
59311;DHT22;45078;51.654;21.250;2023-07-22T07:15:34;20.90;99.90
59311;DHT22;45078;51.654;21.250;2023-07-22T07:18:00;20.90;99.90
59311;DHT22;45078;51.654;21.250;2023-07-22T07:20:26;21.20;99.90
59311;DHT22;45078;51.654;21.250;2023-07-22T07:22:51;21.30;99.90
59311;DHT22;45078;51.654;21.250;2023-07-22T07:25:17;20.90;99.90
59311;DHT22;45078;51.654;21.250;2023-07-22T07:27:43;20.80;99.90
59311;DHT22;45078;51.654;21.250;2023-07-22T07:30:09;20.80;99.90
59311;DHT22;45078;51.654;21.250;2023-07-22T07:32:36;20.80;99.90
59311;DHT22;45078;51.654;21.250;2023-07-22T07:35:02;20.90;99.90
59311;DHT22;45078;51.654;21.250;2023-07-22T07:37:29;20.90;99.90
59311;DHT22;45078;51.654;21.250;2023-07-22T07:39:55;20.90;99.90
59311;DHT22;45078;51.654;21.250;2023-07-22T07:42:26;20.90;99.90
59311;DHT22;45078;51.654;21.250;2023-07-22T07:44:52;21.10;99.90
59311;DHT22;45078;51.654;21.250;2023-07-22T07:47:18;21.20;99.90
59311;DHT22;45078;51.654;21.250;2023-07-22T07:49:44;21.40;99.90
59311;DHT22;45078;51.654;21.250;2023-07-22T07:52:10;21.60;99.90
59311;DHT22;45078;51.654;21.250;2023-07-22T07:54:36;21.80;99.90
59311;DHT22;45078;51.654;21.250;2023-07-22T07:57:02;21.90;99.90
59311;DHT22;45078;51.654;21.250;2023-07-22T07:59:27;21.80;99.90
59311;DHT22;45078;51.654;21.250;2023-07-22T08:01:53;21.80;99.90
59311;DHT22;45078;51.654;21.250;2023-07-22T08:04:19;21.70;99.90
59311;DHT22;45078;51.654;21.250;2023-07-22T08:06:45;21.80;99.90
59311;DHT22;45078;51.654;21.250;2023-07-22T08:09:11;21.70;99.90
59311;DHT22;45078;51.654;21.250;2023-07-22T08:11:41;21.60;99.90
59311;DHT22;45078;51.654;21.250;2023-07-22T08:14:07;21.50;99.90
59311;DHT22;45078;51.654;21.250;2023-07-22T08:16:33;21.50;99.90
59311;DHT22;45078;51.654;21.250;2023-07-22T08:18:59;21.50;99.90
59311;DHT22;45078;51.654;21.250;2023-07-22T08:21:25;21.30;99.90
59311;DHT22;45078;51.654;21.250;2023-07-22T08:23:50;21.30;99.90
59311;DHT22;45078;51.654;21.250;2023-07-22T08:26:16;21.30;99.90
59311;DHT22;45078;51.654;21.250;2023-07-22T08:28:46;21.30;99.90
59311;DHT22;45078;51.654;21.250;2023-07-22T08:31:12;21.60;99.90
59311;DHT22;45078;51.654;21.250;2023-07-22T08:33:38;21.60;99.90
59311;DHT22;45078;51.654;21.250;2023-07-22T08:36:04;21.70;99.90
59311;DHT22;45078;51.654;21.250;2023-07-22T08:38:30;21.70;99.90
59311;DHT22;45078;51.654;21.250;2023-07-22T08:40:56;21.80;99.90
59311;DHT22;45078;51.654;21.250;2023-07-22T08:43:22;22.00;99.90
59311;DHT22;45078;51.654;21.250;2023-07-22T08:45:49;22.10;99.90
59311;DHT22;45078;51.654;21.250;2023-07-22T08:48:17;22.10;99.90
59311;DHT22;45078;51.654;21.250;2023-07-22T08:50:57;22.10;99.90
59311;DHT22;45078;51.654;21.250;2023-07-22T08:53:25;22.00;99.90
59311;DHT22;45078;51.654;21.250;2023-07-22T08:55:51;21.60;99.90
59311;DHT22;45078;51.654;21.250;2023-07-22T08:58:18;21.50;99.90
59311;DHT22;45078;51.654;21.250;2023-07-22T09:00:45;21.60;99.90
59311;DHT22;45078;51.654;21.250;2023-07-22T09:03:11;21.80;99.90
59311;DHT22;45078;51.654;21.250;2023-07-22T09:05:37;22.00;99.90
59311;DHT22;45078;51.654;21.250;2023-07-22T09:08:06;22.10;99.90
59311;DHT22;45078;51.654;21.250;2023-07-22T09:13:07;22.40;99.90
59311;DHT22;45078;51.654;21.250;2023-07-22T09:15:36;22.50;99.90
59311;DHT22;45078;51.654;21.250;2023-07-22T09:18:06;22.10;99.90
59311;DHT22;45078;51.654;21.250;2023-07-22T09:20:32;21.70;99.90
59311;DHT22;45078;51.654;21.250;2023-07-22T09:22:59;21.80;99.90
59311;DHT22;45078;51.654;21.250;2023-07-22T09:25:27;21.90;99.90
59311;DHT22;45078;51.654;21.250;2023-07-22T09:27:55;22.00;99.90
59311;DHT22;45078;51.654;21.250;2023-07-22T09:30:39;22.20;99.90
59311;DHT22;45078;51.654;21.250;2023-07-22T09:33:08;22.40;99.90
59311;DHT22;45078;51.654;21.250;2023-07-22T09:35:48;22.60;99.90
59311;DHT22;45078;51.654;21.250;2023-07-22T09:38:18;22.60;99.90
59311;DHT22;45078;51.654;21.250;2023-07-22T09:40:47;22.80;99.90
59311;DHT22;45078;51.654;21.250;2023-07-22T09:43:13;22.60;99.90
59311;DHT22;45078;51.654;21.250;2023-07-22T09:45:39;22.60;99.90
59311;DHT22;45078;51.654;21.250;2023-07-22T09:48:04;22.60;99.90
59311;DHT22;45078;51.654;21.250;2023-07-22T09:50:31;22.80;99.90
59311;DHT22;45078;51.654;21.250;2023-07-22T09:52:58;22.50;99.90
59311;DHT22;45078;51.654;21.250;2023-07-22T09:55:29;22.60;99.90
59311;DHT22;45078;51.654;21.250;2023-07-22T09:57:58;22.80;99.50
59311;DHT22;45078;51.654;21.250;2023-07-22T10:00:28;22.80;99.20
59311;DHT22;45078;51.654;21.250;2023-07-22T10:02:57;22.70;97.70
59311;DHT22;45078;51.654;21.250;2023-07-22T10:05:24;22.60;96.10
59311;DHT22;45078;51.654;21.250;2023-07-22T10:07:55;22.60;96.90
59311;DHT22;45078;51.654;21.250;2023-07-22T10:10:26;22.60;97.70
59311;DHT22;45078;51.654;21.250;2023-07-22T10:12:53;22.80;97.30
59311;DHT22;45078;51.654;21.250;2023-07-22T10:15:19;22.80;96.40
59311;DHT22;45078;51.654;21.250;2023-07-22T10:17:45;22.90;95.30
59311;DHT22;45078;51.654;21.250;2023-07-22T10:20:13;23.30;96.10
59311;DHT22;45078;51.654;21.250;2023-07-22T10:22:45;23.30;95.80
59311;DHT22;45078;51.654;21.250;2023-07-22T10:25:14;23.10;95.40
59311;DHT22;45078;51.654;21.250;2023-07-22T10:27:41;22.90;96.00
59311;DHT22;45078;51.654;21.250;2023-07-22T10:30:12;23.10;96.10
59311;DHT22;45078;51.654;21.250;2023-07-22T10:32:43;23.30;95.40
59311;DHT22;45078;51.654;21.250;2023-07-22T10:37:49;22.90;94.40
59311;DHT22;45078;51.654;21.250;2023-07-22T10:40:29;22.80;95.20
59311;DHT22;45078;51.654;21.250;2023-07-22T10:43:00;22.60;94.60
59311;DHT22;45078;51.654;21.250;2023-07-22T10:45:29;22.40;94.60
59311;DHT22;45078;51.654;21.250;2023-07-22T10:48:08;22.20;94.50
59311;DHT22;45078;51.654;21.250;2023-07-22T10:58:56;22.20;94.60
59311;DHT22;45078;51.654;21.250;2023-07-22T11:04:21;22.60;95.70
59311;DHT22;45078;51.654;21.250;2023-07-22T11:07:03;22.90;95.70
59311;DHT22;45078;51.654;21.250;2023-07-22T11:14:29;23.70;93.00
59311;DHT22;45078;51.654;21.250;2023-07-22T11:16:57;23.70;91.70
59311;DHT22;45078;51.654;21.250;2023-07-22T11:19:24;23.70;92.30
59311;DHT22;45078;51.654;21.250;2023-07-22T11:21:55;23.50;93.00
59311;DHT22;45078;51.654;21.250;2023-07-22T11:24:22;23.50;92.50
59311;DHT22;45078;51.654;21.250;2023-07-22T11:26:48;23.20;91.90
59311;DHT22;45078;51.654;21.250;2023-07-22T11:29:15;22.90;92.10
59311;DHT22;45078;51.654;21.250;2023-07-22T11:31:45;22.70;92.70
59311;DHT22;45078;51.654;21.250;2023-07-22T11:34:13;22.70;93.50
59311;DHT22;45078;51.654;21.250;2023-07-22T11:36:40;22.90;92.80
59311;DHT22;45078;51.654;21.250;2023-07-22T11:39:07;23.10;94.70
59311;DHT22;45078;51.654;21.250;2023-07-22T11:41:34;23.10;93.20
59311;DHT22;45078;51.654;21.250;2023-07-22T11:44:01;23.00;93.40
59311;DHT22;45078;51.654;21.250;2023-07-22T11:46:28;22.90;93.20
59311;DHT22;45078;51.654;21.250;2023-07-22T11:48:55;22.80;93.60
59311;DHT22;45078;51.654;21.250;2023-07-22T11:51:24;22.70;93.00
59311;DHT22;45078;51.654;21.250;2023-07-22T11:53:55;22.60;93.20
59311;DHT22;45078;51.654;21.250;2023-07-22T11:56:34;22.70;92.70
59311;DHT22;45078;51.654;21.250;2023-07-22T11:59:08;22.70;93.30
59311;DHT22;45078;51.654;21.250;2023-07-22T12:01:34;22.70;94.00
59311;DHT22;45078;51.654;21.250;2023-07-22T12:04:00;22.70;93.60
59311;DHT22;45078;51.654;21.250;2023-07-22T12:06:26;22.70;94.10
59311;DHT22;45078;51.654;21.250;2023-07-22T12:08:53;22.80;94.20
59311;DHT22;45078;51.654;21.250;2023-07-22T12:11:19;22.70;92.50
59311;DHT22;45078;51.654;21.250;2023-07-22T12:13:46;22.60;93.30
59311;DHT22;45078;51.654;21.250;2023-07-22T12:16:21;22.40;93.90
59311;DHT22;45078;51.654;21.250;2023-07-22T12:18:49;22.40;94.00
59311;DHT22;45078;51.654;21.250;2023-07-22T12:21:15;22.20;93.80
59311;DHT22;45078;51.654;21.250;2023-07-22T12:23:41;22.10;94.80
59311;DHT22;45078;51.654;21.250;2023-07-22T12:26:07;22.30;95.30
59311;DHT22;45078;51.654;21.250;2023-07-22T12:28:33;22.80;95.60
59311;DHT22;45078;51.654;21.250;2023-07-22T12:31:00;23.20;95.00
59311;DHT22;45078;51.654;21.250;2023-07-22T12:33:26;23.40;94.20
59311;DHT22;45078;51.654;21.250;2023-07-22T12:35:53;23.50;93.40
59311;DHT22;45078;51.654;21.250;2023-07-22T12:38:20;23.40;93.00
59311;DHT22;45078;51.654;21.250;2023-07-22T12:40:45;23.00;92.60
59311;DHT22;45078;51.654;21.250;2023-07-22T12:43:11;22.70;92.90
59311;DHT22;45078;51.654;21.250;2023-07-22T12:45:37;22.70;93.10
59311;DHT22;45078;51.654;21.250;2023-07-22T12:48:03;22.60;93.40
59311;DHT22;45078;51.654;21.250;2023-07-22T12:50:31;22.70;92.90
59311;DHT22;45078;51.654;21.250;2023-07-22T12:52:58;22.80;93.30
59311;DHT22;45078;51.654;21.250;2023-07-22T12:55:24;23.20;93.00
59311;DHT22;45078;51.654;21.250;2023-07-22T12:57:50;23.60;91.90
59311;DHT22;45078;51.654;21.250;2023-07-22T13:00:16;23.80;91.90
59311;DHT22;45078;51.654;21.250;2023-07-22T13:02:41;24.10;89.60
59311;DHT22;45078;51.654;21.250;2023-07-22T13:05:08;24.10;88.70
59311;DHT22;45078;51.654;21.250;2023-07-22T13:07:34;24.10;89.90
59311;DHT22;45078;51.654;21.250;2023-07-22T13:09:59;24.50;89.30
59311;DHT22;45078;51.654;21.250;2023-07-22T13:12:28;24.70;87.00
59311;DHT22;45078;51.654;21.250;2023-07-22T13:14:54;24.70;85.50
59311;DHT22;45078;51.654;21.250;2023-07-22T13:17:20;24.30;87.20
59311;DHT22;45078;51.654;21.250;2023-07-22T13:19:46;23.90;89.50
59311;DHT22;45078;51.654;21.250;2023-07-22T13:22:15;23.90;90.00
59311;DHT22;45078;51.654;21.250;2023-07-22T13:24:40;23.70;87.40
59311;DHT22;45078;51.654;21.250;2023-07-22T13:27:06;23.40;88.00
59311;DHT22;45078;51.654;21.250;2023-07-22T13:29:33;23.30;88.60
59311;DHT22;45078;51.654;21.250;2023-07-22T13:31:58;23.30;90.60
59311;DHT22;45078;51.654;21.250;2023-07-22T13:34:24;23.20;90.10
59311;DHT22;45078;51.654;21.250;2023-07-22T13:36:51;23.20;90.20
59311;DHT22;45078;51.654;21.250;2023-07-22T13:39:17;23.30;88.90
59311;DHT22;45078;51.654;21.250;2023-07-22T13:41:43;23.30;87.70
59311;DHT22;45078;51.654;21.250;2023-07-22T13:44:09;23.40;89.20
59311;DHT22;45078;51.654;21.250;2023-07-22T13:46:34;23.60;89.10
59311;DHT22;45078;51.654;21.250;2023-07-22T13:49:00;23.80;88.30
59311;DHT22;45078;51.654;21.250;2023-07-22T13:51:26;24.10;87.40
59311;DHT22;45078;51.654;21.250;2023-07-22T13:53:52;24.20;85.00
59311;DHT22;45078;51.654;21.250;2023-07-22T13:56:18;24.40;87.80
59311;DHT22;45078;51.654;21.250;2023-07-22T13:58:43;24.50;87.00
59311;DHT22;45078;51.654;21.250;2023-07-22T14:01:09;24.50;83.20
59311;DHT22;45078;51.654;21.250;2023-07-22T14:03:35;24.40;82.90
59311;DHT22;45078;51.654;21.250;2023-07-22T14:06:01;24.50;84.40
59311;DHT22;45078;51.654;21.250;2023-07-22T14:08:26;24.30;84.50
59311;DHT22;45078;51.654;21.250;2023-07-22T14:10:53;24.10;85.50
59311;DHT22;45078;51.654;21.250;2023-07-22T14:13:18;23.80;85.00
59311;DHT22;45078;51.654;21.250;2023-07-22T14:15:44;23.50;85.60
59311;DHT22;45078;51.654;21.250;2023-07-22T14:18:10;23.30;85.70
59311;DHT22;45078;51.654;21.250;2023-07-22T14:20:35;23.10;86.40
59311;DHT22;45078;51.654;21.250;2023-07-22T14:23:01;22.90;86.30
59311;DHT22;45078;51.654;21.250;2023-07-22T14:25:28;22.80;87.50
59311;DHT22;45078;51.654;21.250;2023-07-22T14:27:54;22.70;87.50
59311;DHT22;45078;51.654;21.250;2023-07-22T14:30:20;22.70;86.70
59311;DHT22;45078;51.654;21.250;2023-07-22T14:32:46;22.70;86.50
59311;DHT22;45078;51.654;21.250;2023-07-22T14:35:11;22.80;87.00
59311;DHT22;45078;51.654;21.250;2023-07-22T14:37:37;23.00;87.70
59311;DHT22;45078;51.654;21.250;2023-07-22T14:40:03;22.90;86.90
59311;DHT22;45078;51.654;21.250;2023-07-22T14:42:30;22.90;87.30
59311;DHT22;45078;51.654;21.250;2023-07-22T14:44:56;23.00;87.40
59311;DHT22;45078;51.654;21.250;2023-07-22T14:47:22;23.00;88.10
59311;DHT22;45078;51.654;21.250;2023-07-22T14:49:48;23.10;88.60
59311;DHT22;45078;51.654;21.250;2023-07-22T14:52:13;23.60;88.90
59311;DHT22;45078;51.654;21.250;2023-07-22T14:54:39;24.00;85.10
59311;DHT22;45078;51.654;21.250;2023-07-22T14:57:05;24.40;83.10
59311;DHT22;45078;51.654;21.250;2023-07-22T14:59:31;24.60;82.10
59311;DHT22;45078;51.654;21.250;2023-07-22T15:01:56;24.70;80.40
59311;DHT22;45078;51.654;21.250;2023-07-22T15:04:23;24.90;78.50
59311;DHT22;45078;51.654;21.250;2023-07-22T15:06:50;24.70;79.50
59311;DHT22;45078;51.654;21.250;2023-07-22T15:09:15;24.80;79.30
59311;DHT22;45078;51.654;21.250;2023-07-22T15:11:41;24.70;79.20
59311;DHT22;45078;51.654;21.250;2023-07-22T15:14:07;24.90;78.30
59311;DHT22;45078;51.654;21.250;2023-07-22T15:16:33;24.90;80.70
59311;DHT22;45078;51.654;21.250;2023-07-22T15:18:59;24.50;81.30
59311;DHT22;45078;51.654;21.250;2023-07-22T15:21:24;24.60;80.80
59311;DHT22;45078;51.654;21.250;2023-07-22T15:23:50;24.30;80.00
59311;DHT22;45078;51.654;21.250;2023-07-22T15:26:16;24.10;81.10
59311;DHT22;45078;51.654;21.250;2023-07-22T15:28:41;24.10;81.00
59311;DHT22;45078;51.654;21.250;2023-07-22T15:31:07;24.10;81.70
59311;DHT22;45078;51.654;21.250;2023-07-22T15:33:36;24.10;81.80
59311;DHT22;45078;51.654;21.250;2023-07-22T15:36:02;24.20;80.90
59311;DHT22;45078;51.654;21.250;2023-07-22T15:38:28;24.50;78.90
59311;DHT22;45078;51.654;21.250;2023-07-22T15:40:54;24.50;76.10
59311;DHT22;45078;51.654;21.250;2023-07-22T15:43:20;24.40;79.10
59311;DHT22;45078;51.654;21.250;2023-07-22T15:45:46;24.40;77.80
59311;DHT22;45078;51.654;21.250;2023-07-22T15:48:11;24.50;79.90